createdAt,value
2019-03-27T00:01:55.184Z,7.26
2019-03-27T00:04:25.054Z,7.26
2019-03-27T00:06:54.945Z,7.24
2019-03-27T00:09:24.789Z,7.16
2019-03-27T00:11:54.656Z,7.10
2019-03-27T00:14:24.492Z,6.93
2019-03-27T00:16:54.324Z,6.84
2019-03-27T00:19:24.211Z,6.77
2019-03-27T00:21:54.055Z,6.69
2019-03-27T00:24:24.303Z,6.67
2019-03-27T00:26:54.146Z,6.67
2019-03-27T00:29:24.022Z,6.71
2019-03-27T00:31:53.908Z,6.71
2019-03-27T00:34:23.748Z,6.58
2019-03-27T00:36:53.695Z,6.43
2019-03-27T00:39:23.498Z,6.31
2019-03-27T00:41:53.286Z,6.21
2019-03-27T00:44:23.543Z,6.12
2019-03-27T00:46:53.328Z,6.10
2019-03-27T00:49:23.210Z,6.01
2019-03-27T00:51:53.312Z,5.97
2019-03-27T00:54:23.386Z,6.13
2019-03-27T00:56:53.401Z,6.29
2019-03-27T00:59:23.421Z,6.48
2019-03-27T01:01:53.235Z,6.59
2019-03-27T01:04:23.394Z,6.55
2019-03-27T01:06:53.186Z,6.45
2019-03-27T01:09:23.117Z,6.36
2019-03-27T01:11:52.886Z,6.30
2019-03-27T01:14:22.717Z,6.22
2019-03-27T01:16:52.637Z,6.18
2019-03-27T01:19:22.426Z,6.11
2019-03-27T01:21:52.240Z,6.11
2019-03-27T01:24:22.011Z,6.06
2019-03-27T01:26:51.885Z,6.00
2019-03-27T01:29:21.638Z,5.87
2019-03-27T01:31:51.379Z,5.60
2019-03-27T01:34:21.567Z,5.58
2019-03-27T01:36:51.404Z,5.54
2019-03-27T01:39:21.567Z,5.53
2019-03-27T01:41:51.417Z,5.53
2019-03-27T01:44:21.194Z,5.56
2019-03-27T01:46:51.137Z,5.61
2019-03-27T01:49:21.853Z,5.46
2019-03-27T01:52:12.005Z,5.39
2019-03-27T01:54:41.782Z,5.51
2019-03-27T01:57:11.706Z,5.60
2019-03-27T01:59:41.709Z,5.42
2019-03-27T02:02:11.764Z,5.27
2019-03-27T02:04:41.591Z,5.18
2019-03-27T02:07:11.400Z,5.22
2019-03-27T02:09:41.202Z,5.39
2019-03-27T02:12:10.974Z,5.56
2019-03-27T02:14:40.793Z,5.57
2019-03-27T02:17:10.671Z,5.53
2019-03-27T02:19:40.422Z,5.49
2019-03-27T02:22:49.736Z,5.45
2019-03-27T02:25:19.750Z,5.40
2019-03-27T02:27:49.812Z,5.38
2019-03-27T02:30:19.563Z,5.38
2019-03-27T02:32:49.357Z,5.38
2019-03-27T02:35:19.404Z,5.42
2019-03-27T02:37:50.102Z,5.40
2019-03-27T02:40:20.117Z,5.46
2019-03-27T02:42:49.936Z,5.45
2019-03-27T02:45:19.720Z,5.48
2019-03-27T02:47:49.536Z,5.53
2019-03-27T02:50:19.797Z,5.61
2019-03-27T02:52:49.630Z,5.65
2019-03-27T02:55:19.733Z,5.67
2019-03-27T02:57:49.490Z,5.47
2019-03-27T03:00:58.416Z,5.62
2019-03-27T03:03:28.587Z,5.56
2019-03-27T03:05:58.359Z,5.47
2019-03-27T03:08:28.152Z,5.44
2019-03-27T03:10:57.966Z,5.37
2019-03-27T03:13:27.719Z,5.31
2019-03-27T03:15:57.490Z,5.21
2019-03-27T03:18:27.298Z,5.12
2019-03-27T03:20:57.054Z,5.08
2019-03-27T03:23:26.835Z,5.06
2019-03-27T03:25:56.720Z,5.03
2019-03-27T03:28:26.523Z,4.99
2019-03-27T03:30:56.301Z,4.91
2019-03-27T03:33:26.086Z,4.80
2019-03-27T03:35:55.898Z,4.72
2019-03-27T03:38:25.670Z,4.33
2019-03-27T03:40:55.560Z,4.62
2019-03-27T03:43:25.430Z,4.67
2019-03-27T03:45:55.269Z,4.70
2019-03-27T03:48:25.087Z,4.74
2019-03-27T03:51:34.059Z,4.60
2019-03-27T03:54:24.003Z,4.77
2019-03-27T03:57:32.894Z,4.77
2019-03-27T04:00:44.164Z,4.75
2019-03-27T04:03:14.235Z,4.75
2019-03-27T04:05:44.107Z,4.75
2019-03-27T04:08:13.887Z,4.76
2019-03-27T04:10:43.811Z,4.76
2019-03-27T04:13:14.004Z,4.79
2019-03-27T04:15:43.991Z,4.83
2019-03-27T04:18:13.727Z,4.84
2019-03-27T04:20:43.527Z,4.83
2019-03-27T04:23:13.300Z,4.83
2019-03-27T04:26:08.288Z,4.83
2019-03-27T04:28:14.642Z,4.85
2019-03-27T04:30:44.390Z,4.84
2019-03-27T04:33:14.146Z,4.84
2019-03-27T04:35:43.918Z,4.84
2019-03-27T04:38:13.703Z,4.82
2019-03-27T04:40:43.473Z,4.82
2019-03-27T04:43:13.305Z,4.79
2019-03-27T04:45:43.172Z,4.77
2019-03-27T04:48:12.976Z,4.73
2019-03-27T04:50:42.856Z,4.72
2019-03-27T04:53:12.638Z,4.70
2019-03-27T04:55:42.758Z,4.70
2019-03-27T04:58:12.553Z,4.67
2019-03-27T05:00:42.394Z,4.61
2019-03-27T05:03:12.202Z,4.55
2019-03-27T05:05:42.080Z,4.37
2019-03-27T05:08:12.062Z,4.26
2019-03-27T05:10:41.916Z,4.30
2019-03-27T05:13:11.746Z,4.37
2019-03-27T05:15:41.501Z,4.47
2019-03-27T05:18:11.700Z,4.59
2019-03-27T05:20:41.477Z,4.64
2019-03-27T05:23:11.284Z,4.72
2019-03-27T05:25:41.070Z,4.76
2019-03-27T05:28:11.765Z,4.81
2019-03-27T05:30:41.577Z,4.84
2019-03-27T05:33:11.452Z,4.72
2019-03-27T05:35:41.258Z,4.64
2019-03-27T05:38:11.106Z,4.69
2019-03-27T05:40:40.930Z,4.78
2019-03-27T05:43:10.793Z,4.93
2019-03-27T05:45:40.637Z,4.95
2019-03-27T05:48:10.788Z,5.10
2019-03-27T05:50:40.602Z,5.18
2019-03-27T05:53:10.822Z,5.23
2019-03-27T05:55:40.650Z,5.19
2019-03-27T05:58:10.643Z,5.21
2019-03-27T06:00:40.557Z,5.20
2019-03-27T06:03:10.897Z,5.13
2019-03-27T06:05:41.723Z,5.12
2019-03-27T06:08:50.672Z,5.15
2019-03-27T06:11:20.446Z,5.23
2019-03-27T06:13:50.282Z,5.26
2019-03-27T06:16:20.166Z,5.29
2019-03-27T06:18:50.025Z,5.30
2019-03-27T06:21:19.832Z,5.27
2019-03-27T06:23:50.027Z,5.24
2019-03-27T06:26:19.969Z,5.32
2019-03-27T06:28:50.103Z,5.43
2019-03-27T06:31:19.918Z,5.51
2019-03-27T06:33:49.752Z,5.49
2019-03-27T06:36:19.595Z,5.57
2019-03-27T06:38:49.822Z,5.61
2019-03-27T06:41:19.719Z,5.69
2019-03-27T06:43:49.556Z,5.72
2019-03-27T06:46:19.450Z,5.78
2019-03-27T06:48:49.336Z,5.79
2019-03-27T06:51:19.148Z,5.75
2019-03-27T06:53:48.987Z,5.80
2019-03-27T06:56:18.855Z,5.91
2019-03-27T06:58:54.359Z,5.88
2019-03-27T07:01:20.238Z,5.97
2019-03-27T07:03:50.354Z,5.99
2019-03-27T07:06:20.130Z,5.81
2019-03-27T07:08:49.935Z,6.18
2019-03-27T07:11:19.787Z,6.17
2019-03-27T07:13:49.588Z,6.26
2019-03-27T07:16:19.437Z,6.41
2019-03-27T07:18:50.748Z,6.63
2019-03-27T07:21:20.621Z,6.67
2019-03-27T07:23:50.472Z,6.77
2019-03-27T07:26:20.405Z,6.85
2019-03-27T07:28:50.729Z,6.83
2019-03-27T07:31:20.624Z,6.88
2019-03-27T07:33:50.867Z,7.01
2019-03-27T07:36:20.740Z,6.96
2019-03-27T07:38:50.519Z,6.88
2019-03-27T07:41:20.610Z,6.91
2019-03-27T07:43:50.673Z,7.01
2019-03-27T07:46:21.410Z,7.10
2019-03-27T07:48:54.140Z,7.26
2019-03-27T07:51:22.733Z,7.22
2019-03-27T07:53:52.519Z,7.23
2019-03-27T07:56:23.153Z,7.21
2019-03-27T07:58:53.040Z,7.08
2019-03-27T08:01:23.018Z,7.08
2019-03-27T08:03:52.765Z,7.03
2019-03-27T08:06:22.535Z,7.06
2019-03-27T08:08:52.468Z,7.20
2019-03-27T08:11:22.817Z,7.35
2019-03-27T08:13:52.591Z,7.52
2019-03-27T08:16:22.408Z,7.83
2019-03-27T08:18:52.149Z,7.99
2019-03-27T08:21:21.951Z,8.14
2019-03-27T08:23:51.756Z,7.89
2019-03-27T08:26:21.598Z,7.94
2019-03-27T08:28:51.462Z,7.87
2019-03-27T08:31:21.373Z,8.00
2019-03-27T08:33:51.142Z,8.25
2019-03-27T08:36:20.896Z,8.39
2019-03-27T08:38:50.718Z,8.29
2019-03-27T08:41:20.479Z,8.43
2019-03-27T08:43:50.602Z,8.78
2019-03-27T08:46:20.350Z,8.97
2019-03-27T08:48:50.142Z,9.13
2019-03-27T08:51:19.903Z,9.06
2019-03-27T08:53:49.707Z,9.07
2019-03-27T08:56:19.474Z,9.09
2019-03-27T08:58:49.243Z,9.04
2019-03-27T09:01:19.053Z,9.15
2019-03-27T09:03:48.885Z,9.20
2019-03-27T09:06:32.782Z,9.03
2019-03-27T09:08:51.031Z,9.19
2019-03-27T09:11:20.840Z,9.49
2019-03-27T09:13:50.616Z,10.13
2019-03-27T09:16:20.442Z,10.57
2019-03-27T09:18:50.212Z,10.64
2019-03-27T09:21:20.369Z,9.97
2019-03-27T09:23:50.182Z,9.63
2019-03-27T09:26:19.948Z,9.73
2019-03-27T09:28:49.741Z,9.68
2019-03-27T09:31:19.544Z,9.74
2019-03-27T09:33:49.330Z,9.82
2019-03-27T09:36:19.401Z,10.07
2019-03-27T09:38:49.227Z,10.11
2019-03-27T09:41:21.431Z,10.22
2019-03-27T09:43:50.506Z,10.30
2019-03-27T09:46:20.270Z,10.11
2019-03-27T09:48:50.056Z,10.49
2019-03-27T09:51:19.813Z,10.44
2019-03-27T09:53:52.954Z,10.71
2019-03-27T09:56:21.079Z,10.61
2019-03-27T09:59:09.977Z,10.72
2019-03-27T10:01:39.722Z,10.55
2019-03-27T10:04:09.913Z,10.45
2019-03-27T10:06:39.945Z,10.39
2019-03-27T10:09:09.799Z,10.25
2019-03-27T10:11:39.578Z,10.41
2019-03-27T10:14:09.368Z,10.49
2019-03-27T10:16:39.179Z,10.63
2019-03-27T10:19:08.962Z,10.21
2019-03-27T10:21:38.745Z,10.40
2019-03-27T10:24:08.499Z,10.42
2019-03-27T10:26:38.310Z,10.61
2019-03-27T10:29:08.118Z,10.27
2019-03-27T10:31:38.063Z,10.33
2019-03-27T10:34:07.924Z,10.33
2019-03-27T10:36:37.751Z,10.43
2019-03-27T10:39:08.524Z,10.60
2019-03-27T10:41:38.398Z,10.38
2019-03-27T10:44:08.170Z,10.08
2019-03-27T10:46:38.043Z,9.87
2019-03-27T10:49:07.827Z,9.91
2019-03-27T10:51:37.637Z,10.07
2019-03-27T10:54:07.406Z,10.37
2019-03-27T10:56:37.289Z,10.41
2019-03-27T10:59:07.091Z,10.09
2019-03-27T11:01:36.949Z,10.23
2019-03-27T11:04:06.760Z,10.23
2019-03-27T11:06:36.564Z,10.32
2019-03-27T11:09:09.495Z,10.52
2019-03-27T11:11:39.374Z,10.67
2019-03-27T11:14:09.145Z,10.61
2019-03-27T11:19:54.196Z,10.71
2019-03-27T11:22:24.026Z,10.73
2019-03-27T11:24:53.830Z,10.89
2019-03-27T11:27:23.687Z,11.07
2019-03-27T11:29:53.796Z,11.39
2019-03-27T11:32:23.714Z,11.71
2019-03-27T11:34:58.614Z,11.60
2019-03-27T11:37:28.689Z,11.46
2019-03-27T11:39:59.038Z,11.37
2019-03-27T11:42:29.048Z,11.75
2019-03-27T11:45:17.989Z,11.73
2019-03-27T11:47:47.955Z,11.88
2019-03-27T11:50:18.020Z,11.99
2019-03-27T11:52:48.896Z,12.31
2019-03-27T11:55:57.818Z,12.73
2019-03-27T11:58:28.161Z,12.62
2019-03-27T12:00:58.008Z,12.07
2019-03-27T12:03:27.997Z,12.01
2019-03-27T12:05:58.310Z,11.60
2019-03-27T12:08:28.338Z,11.45
2019-03-27T12:10:58.225Z,11.26
2019-03-27T12:13:28.765Z,11.39
2019-03-27T12:16:00.307Z,11.46
2019-03-27T12:18:31.967Z,11.48
2019-03-27T12:21:02.359Z,11.45
2019-03-27T12:23:32.367Z,11.71
2019-03-27T12:26:02.366Z,11.94
2019-03-27T12:28:32.243Z,11.87
2019-03-27T12:31:02.148Z,11.73
2019-03-27T12:33:50.826Z,11.82
2019-03-27T12:36:20.718Z,12.02
2019-03-27T12:38:51.598Z,12.23
2019-03-27T12:41:21.447Z,12.08
2019-03-27T12:43:51.229Z,12.26
2019-03-27T12:46:21.422Z,12.77
2019-03-27T12:48:51.224Z,12.56
2019-03-27T12:51:21.031Z,12.98
2019-03-27T12:53:52.307Z,13.19
2019-03-27T12:56:22.243Z,13.60
2019-03-27T12:58:52.082Z,13.41
2019-03-27T13:01:21.975Z,13.28
2019-03-27T13:03:51.822Z,13.36
2019-03-27T13:06:21.726Z,13.04
2019-03-27T13:08:51.612Z,12.89
2019-03-27T13:11:21.468Z,13.09
2019-03-27T13:13:51.355Z,13.43
2019-03-27T13:16:21.116Z,13.57
2019-03-27T13:18:51.741Z,13.49
2019-03-27T13:21:26.589Z,13.76
2019-03-27T13:23:53.448Z,14.18
2019-03-27T13:26:23.305Z,14.75
2019-03-27T13:28:53.129Z,14.90
2019-03-27T13:31:22.994Z,14.60
2019-03-27T13:33:52.897Z,14.33
2019-03-27T13:36:22.738Z,14.36
2019-03-27T13:38:52.678Z,14.06
2019-03-27T13:41:22.524Z,14.88
2019-03-27T13:43:52.383Z,14.69
2019-03-27T13:46:22.188Z,15.24
2019-03-27T13:49:31.093Z,16.62
2019-03-27T13:52:00.905Z,16.77
2019-03-27T13:54:31.397Z,16.93
2019-03-27T13:57:01.256Z,17.02
2019-03-27T13:59:31.634Z,17.48
2019-03-27T14:02:01.480Z,17.57
2019-03-27T14:04:31.320Z,17.26
2019-03-27T14:07:01.247Z,17.43
2019-03-27T14:12:30.298Z,15.28
2019-03-27T14:15:02.340Z,14.62
2019-03-27T14:17:32.182Z,14.50
2019-03-27T14:20:02.382Z,13.84
2019-03-27T14:22:32.228Z,13.48
2019-03-27T14:25:02.295Z,13.58
2019-03-27T14:27:32.230Z,13.56
2019-03-27T14:30:02.416Z,14.05
2019-03-27T14:32:32.368Z,14.75
2019-03-27T14:35:02.311Z,14.93
2019-03-27T14:37:32.428Z,14.41
2019-03-27T14:43:22.783Z,14.90
2019-03-27T14:45:54.453Z,15.35
2019-03-27T14:48:44.551Z,16.20
2019-03-27T14:51:14.437Z,15.99
2019-03-27T14:53:44.517Z,15.01
2019-03-27T14:58:53.704Z,14.66
2019-03-27T15:01:23.674Z,14.46
2019-03-27T15:03:53.558Z,14.71
2019-03-27T15:06:59.817Z,14.10
2019-03-27T15:09:30.177Z,13.67
2019-03-27T15:12:00.476Z,13.27
2019-03-27T15:14:30.453Z,13.43
2019-03-27T15:17:00.542Z,13.66
2019-03-27T15:19:31.276Z,13.47
2019-03-27T15:22:01.101Z,13.41
2019-03-27T15:24:30.913Z,13.55
2019-03-27T15:27:00.913Z,13.98
2019-03-27T15:29:50.007Z,13.88
2019-03-27T15:32:19.985Z,13.92
2019-03-27T16:21:20.329Z,11.78
2019-03-27T17:31:24.956Z,11.00
2019-03-27T17:34:05.524Z,10.98
2019-03-27T17:36:35.484Z,10.82
2019-03-27T17:49:46.239Z,10.54
2019-03-27T17:52:16.318Z,10.52
2019-03-27T17:54:46.506Z,10.46
2019-03-27T17:57:16.690Z,10.39
2019-03-27T18:22:19.565Z,9.94
2019-03-27T18:24:49.852Z,9.91
2019-03-27T18:27:19.735Z,9.84
2019-03-27T18:29:49.818Z,9.77
2019-03-27T18:32:20.386Z,9.71
2019-03-27T18:34:50.438Z,9.60
2019-03-27T18:37:20.419Z,9.61
2019-03-27T18:40:12.983Z,9.53
2019-03-27T22:10:13.394Z,7.33
2019-03-27T22:55:50.717Z,7.10
2019-03-27T23:26:11.940Z,6.77
2019-03-27T23:28:41.742Z,6.83
2019-03-27T23:31:11.499Z,6.86
2019-03-27T23:33:42.015Z,6.83
2019-03-27T23:36:12.152Z,6.85
2019-03-27T23:38:42.005Z,6.86
2019-03-27T23:41:11.825Z,6.80
2019-03-27T23:43:41.701Z,6.72
2019-03-27T23:46:11.572Z,6.69
2019-03-27T23:48:41.398Z,6.68
2019-03-27T23:51:11.230Z,6.64
2019-03-27T23:53:41.081Z,6.54
2019-03-27T23:56:16.556Z,6.57
2019-03-27T23:58:42.814Z,6.62
